createdAt,value
2022-09-15T00:01:03.000Z,97.90
2022-09-15T00:03:30.487Z,98.14
2022-09-15T00:05:57.940Z,97.28
2022-09-15T00:08:25.772Z,96.52
2022-09-15T00:10:55.907Z,96.82
2022-09-15T00:13:23.771Z,97.26
2022-09-15T00:15:53.201Z,97.06
2022-09-15T00:18:21.379Z,97.64
2022-09-15T00:20:48.940Z,97.76
2022-09-15T00:23:17.593Z,97.59
2022-09-15T00:25:46.371Z,97.90
2022-09-15T00:28:14.526Z,98.28
2022-09-15T00:30:43.013Z,98.12
2022-09-15T00:33:12.052Z,98.26
2022-09-15T00:35:40.767Z,97.96
2022-09-15T00:38:09.232Z,98.85
2022-09-15T00:40:45.155Z,98.76
2022-09-15T00:43:13.888Z,98.47
2022-09-15T00:45:41.610Z,98.78
2022-09-15T00:48:15.133Z,98.91
2022-09-15T00:50:45.712Z,98.92
2022-09-15T00:53:14.740Z,98.70
2022-09-15T00:55:47.300Z,98.89
2022-09-15T00:58:20.893Z,98.81
2022-09-15T01:00:55.273Z,98.72
2022-09-15T01:03:25.065Z,98.47
2022-09-15T01:05:55.658Z,98.72
2022-09-15T01:08:30.719Z,98.63
2022-09-15T01:10:58.879Z,98.29
2022-09-15T01:13:26.912Z,98.25
2022-09-15T01:16:03.443Z,97.94
2022-09-15T01:18:40.891Z,97.94
2022-09-15T01:21:20.309Z,98.16
2022-09-15T01:24:33.831Z,97.94
2022-09-15T01:27:37.622Z,97.94
2022-09-15T01:30:06.636Z,97.79
2022-09-15T01:33:06.646Z,97.95
2022-09-15T01:35:45.016Z,97.81
2022-09-15T01:38:17.959Z,97.53
2022-09-15T01:40:50.966Z,97.51
2022-09-15T01:43:20.057Z,97.88
2022-09-15T01:45:50.664Z,97.50
2022-09-15T01:48:20.848Z,97.60
2022-09-15T01:50:52.378Z,97.52
2022-09-15T01:53:22.991Z,97.67
2022-09-15T01:55:55.126Z,97.49
2022-09-15T01:58:22.893Z,97.36
2022-09-15T02:00:56.909Z,97.81
2022-09-15T02:03:33.579Z,97.52
2022-09-15T02:06:05.052Z,97.89
2022-09-15T02:08:39.056Z,97.97
2022-09-15T02:11:16.474Z,98.18
2022-09-15T02:13:49.641Z,98.46
2022-09-15T02:16:22.194Z,98.56
2022-09-15T02:19:08.755Z,98.37
2022-09-15T02:21:45.425Z,98.52
2022-09-15T02:24:18.548Z,98.25
2022-09-15T02:26:49.783Z,98.50
2022-09-15T02:29:20.697Z,98.50
2022-09-15T02:31:52.431Z,98.85
2022-09-15T02:34:24.826Z,99.08
2022-09-15T02:36:54.574Z,98.97
2022-09-15T02:39:27.342Z,99.09
2022-09-15T02:41:54.972Z,98.71
2022-09-15T02:44:23.402Z,98.73
2022-09-15T02:46:52.262Z,98.37
2022-09-15T02:49:20.005Z,98.71
2022-09-15T02:51:47.617Z,98.59
2022-09-15T02:54:15.067Z,98.48
2022-09-15T02:56:43.406Z,98.26
2022-09-15T02:59:10.849Z,97.64
2022-09-15T03:01:38.878Z,97.71
2022-09-15T03:04:08.238Z,98.24
2022-09-15T03:06:35.848Z,98.27
2022-09-15T03:09:06.316Z,98.40
2022-09-15T03:11:34.738Z,98.45
2022-09-15T03:14:04.033Z,98.45
2022-09-15T03:16:34.256Z,98.21
2022-09-15T03:19:02.188Z,97.64
2022-09-15T03:21:30.996Z,97.80
2022-09-15T03:23:58.936Z,97.71
2022-09-15T03:26:26.899Z,98.00
2022-09-15T03:28:54.330Z,98.11
2022-09-15T03:31:22.062Z,97.92
2022-09-15T03:33:49.632Z,97.97
2022-09-15T03:36:17.216Z,97.86
2022-09-15T03:38:45.970Z,97.90
2022-09-15T03:41:13.848Z,98.20
2022-09-15T03:43:41.598Z,98.00
2022-09-15T03:46:11.347Z,98.52
2022-09-15T03:48:40.397Z,98.73
2022-09-15T03:51:09.948Z,98.61
2022-09-15T03:53:39.008Z,98.74
2022-09-15T03:56:14.354Z,98.81
2022-09-15T03:58:41.770Z,98.40
2022-09-15T04:01:09.298Z,98.42
2022-09-15T04:03:43.271Z,98.47
2022-09-15T04:06:13.202Z,97.82
2022-09-15T04:08:40.761Z,97.96
2022-09-15T04:11:09.622Z,97.99
2022-09-15T04:13:41.717Z,97.67
2022-09-15T04:16:11.547Z,97.63
2022-09-15T04:18:39.398Z,97.55
2022-09-15T04:21:09.435Z,97.72
2022-09-15T04:23:37.055Z,97.61
2022-09-15T04:26:06.686Z,97.71
2022-09-15T04:28:36.799Z,97.79
2022-09-15T04:31:07.323Z,97.74
2022-09-15T04:33:35.409Z,97.86
2022-09-15T04:36:04.658Z,98.08
2022-09-15T04:38:32.986Z,98.49
2022-09-15T04:41:01.776Z,98.40
2022-09-15T04:43:29.904Z,98.51
2022-09-15T04:45:57.380Z,98.56
2022-09-15T04:48:27.289Z,98.65
2022-09-15T04:50:54.987Z,98.70
2022-09-15T04:53:22.431Z,98.69
2022-09-15T04:55:49.943Z,98.69
2022-09-15T04:58:17.365Z,98.60
2022-09-15T05:00:44.849Z,98.66
2022-09-15T05:03:14.274Z,99.12
2022-09-15T05:05:43.048Z,99.37
2022-09-15T05:08:10.832Z,99.48
2022-09-15T05:10:39.601Z,99.48
2022-09-15T05:13:07.029Z,99.18
2022-09-15T05:15:34.651Z,98.85
2022-09-15T05:18:02.153Z,98.71
2022-09-15T05:20:29.688Z,98.62
2022-09-15T05:22:58.508Z,98.58
2022-09-15T05:25:26.077Z,98.73
2022-09-15T05:27:53.720Z,98.52
2022-09-15T05:30:37.693Z,98.91
2022-09-15T05:33:06.259Z,98.91
2022-09-15T05:35:33.682Z,98.73
2022-09-15T05:38:02.579Z,98.98
2022-09-15T05:40:30.017Z,98.83
2022-09-15T05:42:57.491Z,98.77
2022-09-15T05:45:25.243Z,98.72
2022-09-15T05:47:52.686Z,98.59
2022-09-15T05:50:20.235Z,98.44
2022-09-15T05:52:51.895Z,98.53
2022-09-15T05:55:20.648Z,98.48
2022-09-15T05:57:48.139Z,98.16
2022-09-15T06:00:16.269Z,98.10
2022-09-15T06:02:44.062Z,98.19
2022-09-15T06:05:11.605Z,97.86
2022-09-15T06:07:39.112Z,97.48
2022-09-15T06:10:07.727Z,97.47
2022-09-15T06:12:36.466Z,97.13
2022-09-15T06:15:04.118Z,97.19
2022-09-15T06:17:33.996Z,97.08
2022-09-15T06:20:01.485Z,97.22
2022-09-15T06:22:29.166Z,96.84
2022-09-15T06:24:56.584Z,97.10
2022-09-15T06:27:25.643Z,97.02
2022-09-15T06:29:54.435Z,97.04
2022-09-15T06:32:21.996Z,97.00
2022-09-15T06:34:49.463Z,97.00
2022-09-15T06:37:16.923Z,96.79
2022-09-15T06:39:44.584Z,96.69
2022-09-15T06:42:13.980Z,97.19
2022-09-15T06:44:41.544Z,96.56
2022-09-15T06:47:10.607Z,96.20
2022-09-15T06:49:38.038Z,95.98
2022-09-15T06:52:05.484Z,95.15
2022-09-15T06:54:32.962Z,95.14
2022-09-15T06:57:00.440Z,94.76
2022-09-15T06:59:27.949Z,94.80
2022-09-15T07:01:56.136Z,95.40
2022-09-15T07:04:24.936Z,94.89
2022-09-15T07:06:52.369Z,95.09
2022-09-15T07:09:19.959Z,95.60
2022-09-15T07:11:47.368Z,95.59
2022-09-15T07:14:14.798Z,95.92
2022-09-15T07:16:42.245Z,95.89
2022-09-15T07:19:09.676Z,96.05
2022-09-15T07:21:38.438Z,96.12
2022-09-15T07:24:07.545Z,95.98
2022-09-15T07:26:35.688Z,96.15
2022-09-15T07:29:05.328Z,96.35
2022-09-15T07:31:35.277Z,95.49
2022-09-15T07:34:03.468Z,95.93
2022-09-15T07:36:32.083Z,95.12
2022-09-15T07:39:00.844Z,95.92
2022-09-15T07:41:30.060Z,95.13
2022-09-15T07:43:59.250Z,95.22
2022-09-15T07:46:28.083Z,95.91
2022-09-15T07:48:56.599Z,95.93
2022-09-15T07:51:24.675Z,94.84
2022-09-15T07:53:52.958Z,95.06
2022-09-15T07:56:23.201Z,94.47
2022-09-15T07:58:51.221Z,94.59
2022-09-15T08:01:20.381Z,94.49
2022-09-15T08:03:49.902Z,94.68
2022-09-15T08:06:19.161Z,93.87
2022-09-15T08:08:46.994Z,93.69
2022-09-15T08:11:18.827Z,93.57
2022-09-15T08:13:49.265Z,93.02
2022-09-15T08:16:18.821Z,92.00
2022-09-15T08:18:46.772Z,92.46
2022-09-15T08:21:17.175Z,92.91
2022-09-15T08:23:45.136Z,91.46
2022-09-15T08:26:14.592Z,90.74
2022-09-15T08:28:42.996Z,90.44
2022-09-15T08:31:13.989Z,90.03
2022-09-15T08:33:45.531Z,89.45
2022-09-15T08:36:13.791Z,89.75
2022-09-15T08:38:41.855Z,89.97
2022-09-15T08:41:15.375Z,88.72
2022-09-15T08:43:47.610Z,88.17
2022-09-15T08:46:21.199Z,87.52
2022-09-15T08:48:54.854Z,88.34
2022-09-15T08:51:28.391Z,86.43
2022-09-15T08:54:04.087Z,84.56
2022-09-15T08:56:31.969Z,85.10
2022-09-15T08:59:00.628Z,85.97
2022-09-15T09:01:41.923Z,85.78
2022-09-15T09:04:24.189Z,84.47
2022-09-15T09:07:04.775Z,84.26
2022-09-15T09:09:41.380Z,85.10
2022-09-15T09:12:33.441Z,84.97
2022-09-15T09:15:16.808Z,84.08
2022-09-15T09:18:08.507Z,85.78
2022-09-15T09:20:46.575Z,84.08
2022-09-15T09:23:16.772Z,83.28
2022-09-15T09:25:45.180Z,84.47
2022-09-15T09:28:24.576Z,84.96
2022-09-15T09:30:52.049Z,84.12
2022-09-15T09:33:30.229Z,83.04
2022-09-15T09:36:01.072Z,82.95
2022-09-15T09:38:33.344Z,81.88
2022-09-15T09:41:02.542Z,81.47
2022-09-15T09:43:31.306Z,79.97
2022-09-15T09:45:59.155Z,81.79
2022-09-15T09:48:29.780Z,80.63
2022-09-15T09:50:57.699Z,80.38
2022-09-15T09:53:29.789Z,80.13
2022-09-15T09:56:17.187Z,82.20
2022-09-15T09:58:44.874Z,80.61
2022-09-15T10:01:14.528Z,81.29
2022-09-15T10:03:45.119Z,81.78
2022-09-15T10:06:14.723Z,83.33
2022-09-15T10:09:04.991Z,82.99
2022-09-15T10:11:44.828Z,82.63
2022-09-15T10:14:22.016Z,81.56
2022-09-15T10:17:00.768Z,83.20
2022-09-15T10:19:31.984Z,83.27
2022-09-15T10:22:01.425Z,82.61
2022-09-15T10:24:36.557Z,82.89
2022-09-15T10:27:09.494Z,81.84
2022-09-15T10:29:40.477Z,82.12
2022-09-15T10:32:25.293Z,82.63
2022-09-15T10:35:02.220Z,81.09
2022-09-15T10:37:35.887Z,79.49
2022-09-15T10:40:19.243Z,79.32
2022-09-15T10:42:51.662Z,77.95
2022-09-15T10:45:26.106Z,78.16
2022-09-15T10:48:18.588Z,77.44
2022-09-15T10:50:56.430Z,77.00
2022-09-15T10:53:44.022Z,75.81
2022-09-15T10:56:22.418Z,77.85
2022-09-15T10:59:03.421Z,78.11
2022-09-15T11:01:53.375Z,77.31
2022-09-15T11:04:45.370Z,78.66
2022-09-15T11:07:21.368Z,73.92
2022-09-15T11:09:54.751Z,74.52
2022-09-15T11:12:38.293Z,73.77
2022-09-15T11:15:18.619Z,74.09
2022-09-15T11:17:59.772Z,73.37
2022-09-15T11:20:44.604Z,70.38
2022-09-15T11:23:19.642Z,72.27
2022-09-15T11:25:51.603Z,70.02
2022-09-15T11:28:22.565Z,68.76
2022-09-15T11:30:56.784Z,70.12
2022-09-15T11:33:31.906Z,69.27
2022-09-15T11:36:03.659Z,69.91
2022-09-15T11:38:42.775Z,68.15
2022-09-15T11:41:19.403Z,68.80
2022-09-15T11:43:55.614Z,68.47
2022-09-15T11:46:30.951Z,67.99
2022-09-15T11:49:04.364Z,69.25
2022-09-15T11:51:38.297Z,68.32
2022-09-15T11:54:13.493Z,68.43
2022-09-15T11:56:44.682Z,68.87
2022-09-15T11:59:20.330Z,69.37
2022-09-15T12:01:53.200Z,68.57
2022-09-15T12:04:26.494Z,68.66
2022-09-15T12:06:57.972Z,67.34
2022-09-15T12:09:27.050Z,68.36
2022-09-15T12:11:58.388Z,66.44
2022-09-15T12:14:31.320Z,66.32
2022-09-15T12:17:00.080Z,65.66
2022-09-15T12:19:50.161Z,68.33
2022-09-15T12:22:24.380Z,67.40
2022-09-15T12:25:01.348Z,67.84
2022-09-15T12:27:29.232Z,67.51
2022-09-15T12:29:58.040Z,69.42
2022-09-15T12:32:28.676Z,68.14
2022-09-15T12:35:01.678Z,66.65
2022-09-15T12:37:39.580Z,66.82
2022-09-15T12:40:27.686Z,67.54
2022-09-15T12:42:55.514Z,67.73
2022-09-15T12:45:27.053Z,66.58
2022-09-15T12:47:58.092Z,66.21
2022-09-15T12:50:30.159Z,66.50
2022-09-15T12:53:00.820Z,64.52
2022-09-15T12:55:33.424Z,65.29
2022-09-15T12:58:07.257Z,66.83
2022-09-15T13:00:49.990Z,65.33
2022-09-15T13:03:49.948Z,66.32
2022-09-15T13:06:20.917Z,68.81
2022-09-15T13:08:56.542Z,67.38
2022-09-15T13:11:40.130Z,66.71
2022-09-15T13:14:14.860Z,67.76
2022-09-15T13:16:49.296Z,68.04
2022-09-15T13:19:21.279Z,67.72
2022-09-15T13:21:58.428Z,68.16
2022-09-15T13:24:37.680Z,68.68
2022-09-15T13:27:07.324Z,68.29
2022-09-15T13:29:41.980Z,68.92
2022-09-15T13:32:18.363Z,68.98
2022-09-15T13:35:16.557Z,68.19
2022-09-15T13:38:16.762Z,68.96
2022-09-15T13:41:32.722Z,69.55
2022-09-15T13:44:23.095Z,69.88
2022-09-15T13:47:02.362Z,69.01
2022-09-15T13:49:46.466Z,69.51
2022-09-15T13:52:24.973Z,71.39
2022-09-15T13:55:21.480Z,70.81
2022-09-15T14:00:48.159Z,71.96
2022-09-15T14:03:19.896Z,70.90
2022-09-15T14:05:47.541Z,71.54
2022-09-15T14:08:17.931Z,71.28
2022-09-15T14:10:52.966Z,70.95
2022-09-15T14:13:23.511Z,72.00
2022-09-15T14:15:58.748Z,71.67
2022-09-15T14:18:26.657Z,72.94
2022-09-15T14:21:05.319Z,72.91
2022-09-15T14:23:33.552Z,74.05
2022-09-15T14:26:03.216Z,72.55
2022-09-15T14:28:33.044Z,73.35
2022-09-15T14:31:01.633Z,72.74
2022-09-15T14:33:37.601Z,72.83
2022-09-15T14:36:13.878Z,73.42
2022-09-15T14:38:41.308Z,72.33
2022-09-15T14:41:20.016Z,71.21
2022-09-15T14:43:47.476Z,72.70
2022-09-15T14:46:17.794Z,72.33
2022-09-15T14:48:45.786Z,72.92
2022-09-15T14:51:19.949Z,73.10
2022-09-15T14:53:50.380Z,73.75
2022-09-15T14:56:23.595Z,74.13
2022-09-15T14:58:53.578Z,75.68
2022-09-15T15:01:27.010Z,74.53
2022-09-15T15:04:01.298Z,75.87
2022-09-15T15:06:34.243Z,76.44
2022-09-15T15:09:04.054Z,75.44
2022-09-15T15:11:35.339Z,75.97
2022-09-15T15:14:06.615Z,77.52
2022-09-15T15:16:35.554Z,77.23
2022-09-15T15:19:03.587Z,79.32
2022-09-15T15:21:40.091Z,80.01
2022-09-15T15:24:20.556Z,81.66
2022-09-15T15:26:50.739Z,83.04
2022-09-15T15:29:42.915Z,82.50
2022-09-15T15:32:13.394Z,83.55
2022-09-15T15:34:48.254Z,82.73
2022-09-15T15:37:24.899Z,85.04
2022-09-15T15:39:53.112Z,85.46
2022-09-15T15:42:22.280Z,84.88
2022-09-15T15:45:06.010Z,85.71
2022-09-15T15:47:36.441Z,85.55
2022-09-15T15:50:14.037Z,83.78
2022-09-15T15:52:42.390Z,83.96
2022-09-15T15:55:14.628Z,82.88
2022-09-15T15:57:43.979Z,82.30
2022-09-15T16:00:22.353Z,81.79
2022-09-15T16:02:50.386Z,80.95
2022-09-15T16:05:18.601Z,79.35
2022-09-15T16:07:48.431Z,78.27
2022-09-15T16:10:17.068Z,79.15
2022-09-15T16:12:45.853Z,78.81
2022-09-15T16:15:16.603Z,79.13
2022-09-15T16:17:46.758Z,78.95
2022-09-15T16:20:15.750Z,78.52
2022-09-15T16:22:43.686Z,79.33
2022-09-15T16:25:15.734Z,79.68
2022-09-15T16:27:43.289Z,79.92
2022-09-15T16:30:12.927Z,79.43
2022-09-15T16:32:41.199Z,79.32
2022-09-15T16:35:22.697Z,78.90
2022-09-15T16:37:50.170Z,79.52
2022-09-15T16:40:18.137Z,78.58
2022-09-15T16:42:46.087Z,77.71
2022-09-15T16:45:22.863Z,78.08
2022-09-15T16:47:50.288Z,78.19
2022-09-15T16:50:17.912Z,77.29
2022-09-15T16:52:45.436Z,78.52
2022-09-15T16:55:23.157Z,77.36
2022-09-15T16:57:50.665Z,77.81
2022-09-15T17:00:19.802Z,76.51
2022-09-15T17:02:47.219Z,73.97
2022-09-15T17:05:28.024Z,72.52
2022-09-15T17:07:55.492Z,72.48
2022-09-15T17:10:23.182Z,70.57
2022-09-15T17:12:50.698Z,72.69
2022-09-15T17:15:23.344Z,72.92
2022-09-15T17:17:51.014Z,73.94
2022-09-15T17:20:19.452Z,73.27
2022-09-15T17:22:47.803Z,74.47
2022-09-15T17:25:24.015Z,75.30
2022-09-15T17:27:51.936Z,76.11
2022-09-15T17:30:22.326Z,76.02
2022-09-15T17:32:50.554Z,77.08
2022-09-15T17:35:21.222Z,77.46
2022-09-15T17:37:49.306Z,78.16
2022-09-15T17:40:17.788Z,78.63
2022-09-15T17:42:45.779Z,78.87
2022-09-15T17:45:19.752Z,79.41
2022-09-15T17:47:48.598Z,80.17
2022-09-15T17:50:16.512Z,80.08
2022-09-15T17:52:44.175Z,79.83
2022-09-15T17:55:14.648Z,79.85
2022-09-15T17:57:42.100Z,80.75
2022-09-15T18:00:12.114Z,80.42
2022-09-15T18:02:40.770Z,81.12
2022-09-15T18:05:18.221Z,81.68
2022-09-15T18:07:45.720Z,81.62
2022-09-15T18:10:13.412Z,81.80
2022-09-15T18:12:41.865Z,82.26
2022-09-15T18:15:16.483Z,82.35
2022-09-15T18:17:44.538Z,82.80
2022-09-15T18:20:18.093Z,81.83
2022-09-15T18:22:46.071Z,81.94
2022-09-15T18:25:17.901Z,82.48
2022-09-15T18:27:45.400Z,83.38
2022-09-15T18:30:14.017Z,82.86
2022-09-15T18:32:41.466Z,82.89
2022-09-15T18:35:10.010Z,83.04
2022-09-15T18:37:39.272Z,83.26
2022-09-15T18:40:09.379Z,82.78
2022-09-15T18:42:37.573Z,82.83
2022-09-15T18:45:06.580Z,83.04
2022-09-15T18:47:34.559Z,83.66
2022-09-15T18:50:03.530Z,83.68
2022-09-15T18:52:30.928Z,83.51
2022-09-15T18:55:00.217Z,83.44
2022-09-15T18:57:28.348Z,82.94
2022-09-15T18:59:55.735Z,83.26
2022-09-15T19:02:23.194Z,83.18
2022-09-15T19:04:50.650Z,83.91
2022-09-15T19:07:18.058Z,83.94
2022-09-15T19:09:45.499Z,84.40
2022-09-15T19:12:14.341Z,84.27
2022-09-15T19:14:46.010Z,84.40
2022-09-15T19:17:14.219Z,84.20
2022-09-15T19:19:41.821Z,84.71
2022-09-15T19:22:09.934Z,83.94
2022-09-15T19:24:37.887Z,84.84
2022-09-15T19:27:07.276Z,84.07
2022-09-15T19:29:37.328Z,84.54
2022-09-15T19:32:06.806Z,84.96
2022-09-15T19:34:34.611Z,84.82
2022-09-15T19:37:04.831Z,85.39
2022-09-15T19:39:34.335Z,84.72
2022-09-15T19:42:01.862Z,85.55
2022-09-15T19:44:29.484Z,86.14
2022-09-15T19:46:58.611Z,85.60
2022-09-15T19:49:26.741Z,86.04
2022-09-15T19:51:55.817Z,86.38
2022-09-15T19:54:24.067Z,86.46
2022-09-15T19:56:52.027Z,86.24
2022-09-15T19:59:20.615Z,86.06
2022-09-15T20:01:48.426Z,85.93
2022-09-15T20:04:17.256Z,86.38
2022-09-15T20:06:44.718Z,86.15
2022-09-15T20:09:12.158Z,85.71
2022-09-15T20:11:39.567Z,85.73
2022-09-15T20:14:07.333Z,85.17
2022-09-15T20:16:34.996Z,84.60
2022-09-15T20:19:04.165Z,85.18
2022-09-15T20:21:51.127Z,84.53
2022-09-15T20:24:20.215Z,84.02
2022-09-15T20:26:47.662Z,83.76
2022-09-15T20:29:15.246Z,83.92
2022-09-15T20:31:43.440Z,84.46
2022-09-15T20:34:10.834Z,83.62
2022-09-15T20:36:40.023Z,83.95
2022-09-15T20:39:10.368Z,83.98
2022-09-15T20:41:37.885Z,83.72
2022-09-15T20:44:09.269Z,83.79
2022-09-15T20:46:37.382Z,84.05
2022-09-15T20:49:05.607Z,83.78
2022-09-15T20:51:33.651Z,84.09
2022-09-15T20:54:04.340Z,83.86
2022-09-15T20:56:34.719Z,83.86
2022-09-15T20:59:02.609Z,84.08
2022-09-15T21:01:34.049Z,84.00
2022-09-15T21:04:01.815Z,84.06
2022-09-15T21:06:29.707Z,84.34
2022-09-15T21:08:57.770Z,85.00
2022-09-15T21:11:27.912Z,85.01
2022-09-15T21:13:55.803Z,85.46
2022-09-15T21:16:26.001Z,86.14
2022-09-15T21:18:54.018Z,86.25
2022-09-15T21:21:23.527Z,86.47
2022-09-15T21:23:52.978Z,87.14
2022-09-15T21:26:22.129Z,87.73
2022-09-15T21:28:51.450Z,88.29
2022-09-15T21:31:21.079Z,88.80
2022-09-15T21:33:49.579Z,87.95
2022-09-15T21:36:20.697Z,87.86
2022-09-15T21:38:48.564Z,88.23
2022-09-15T21:41:18.077Z,88.88
2022-09-15T21:43:46.542Z,89.43
2022-09-15T21:46:17.724Z,88.62
2022-09-15T21:48:47.112Z,88.56
2022-09-15T21:51:15.949Z,88.69
2022-09-15T21:53:43.551Z,88.50
2022-09-15T21:56:12.427Z,88.01
2022-09-15T21:58:42.985Z,88.67
2022-09-15T22:01:12.810Z,88.67
2022-09-15T22:03:43.013Z,88.82
2022-09-15T22:06:11.588Z,88.15
2022-09-15T22:08:39.704Z,87.12
2022-09-15T22:11:08.887Z,87.61
2022-09-15T22:13:38.342Z,87.85
2022-09-15T22:16:08.930Z,88.11
2022-09-15T22:18:37.216Z,88.64
2022-09-15T22:21:14.646Z,88.68
2022-09-15T22:23:42.967Z,88.00
2022-09-15T22:26:12.187Z,88.01
2022-09-15T22:28:39.920Z,88.46
2022-09-15T22:31:08.865Z,88.29
2022-09-15T22:33:36.659Z,88.42
2022-09-15T22:36:05.889Z,88.28
2022-09-15T22:38:34.661Z,88.76
2022-09-15T22:41:05.011Z,88.45
2022-09-15T22:43:32.480Z,88.47
2022-09-15T22:46:00.357Z,88.70
2022-09-15T22:48:27.875Z,88.95
2022-09-15T22:50:55.388Z,89.59
2022-09-15T22:53:23.359Z,89.72
2022-09-15T22:55:52.932Z,89.52
2022-09-15T22:58:20.984Z,88.71
2022-09-15T23:00:48.480Z,88.83
2022-09-15T23:03:15.936Z,89.23
2022-09-15T23:05:43.359Z,89.24
2022-09-15T23:08:10.849Z,89.55
2022-09-15T23:10:38.274Z,89.32
2022-09-15T23:13:07.013Z,89.49
2022-09-15T23:15:35.100Z,89.46
2022-09-15T23:18:02.945Z,89.25
2022-09-15T23:20:30.962Z,89.25
2022-09-15T23:22:58.387Z,89.32
2022-09-15T23:25:25.804Z,89.62
2022-09-15T23:27:53.244Z,89.19
2022-09-15T23:30:21.960Z,88.98
2022-09-15T23:32:49.367Z,89.60
2022-09-15T23:35:16.850Z,89.52
2022-09-15T23:37:44.501Z,89.26
2022-09-15T23:40:12.025Z,89.86
2022-09-15T23:42:39.611Z,90.38
2022-09-15T23:45:08.174Z,90.81
2022-09-15T23:47:36.904Z,91.08
2022-09-15T23:50:04.739Z,91.11
2022-09-15T23:52:32.152Z,90.34
2022-09-15T23:54:59.563Z,90.29
2022-09-15T23:57:26.992Z,90.04
2022-09-15T23:59:54.376Z,90.28
